createdAt,value
2023-03-21T00:01:51.895Z,17.63
2023-03-21T00:04:21.259Z,17.03
2023-03-21T00:06:49.026Z,18.77
2023-03-21T00:09:16.759Z,20.37
2023-03-21T00:11:45.108Z,19.83
2023-03-21T00:14:14.527Z,18.73
2023-03-21T00:16:45.866Z,19.67
2023-03-21T00:19:14.561Z,20.03
2023-03-21T00:21:59.556Z,21.17
2023-03-21T00:24:31.861Z,23.47
2023-03-21T00:27:10.747Z,23.53
2023-03-21T00:29:49.282Z,25.93
2023-03-21T00:32:17.505Z,25.03
2023-03-21T00:34:59.579Z,23.20
2023-03-21T00:37:31.552Z,26.10
2023-03-21T00:39:59.284Z,27.50
2023-03-21T00:42:27.149Z,28.33
2023-03-21T00:44:54.862Z,25.13
2023-03-21T00:47:25.370Z,24.63
2023-03-21T00:49:53.537Z,29.93
2023-03-21T00:52:30.804Z,28.13
2023-03-21T00:55:03.431Z,30.40
2023-03-21T00:57:38.668Z,33.33
2023-03-21T01:00:10.270Z,29.03
2023-03-21T01:02:38.599Z,32.63
2023-03-21T01:05:07.120Z,34.97
2023-03-21T01:07:34.907Z,33.30
2023-03-21T01:10:04.082Z,39.30
2023-03-21T01:12:31.795Z,37.77
2023-03-21T01:14:59.582Z,40.67
2023-03-21T01:17:27.297Z,45.23
2023-03-21T01:19:55.059Z,40.83
2023-03-21T01:22:22.793Z,42.50
2023-03-21T01:24:55.564Z,43.77
2023-03-21T01:27:29.565Z,44.63
2023-03-21T01:29:57.829Z,46.43
2023-03-21T01:32:26.441Z,48.17
2023-03-21T01:34:54.248Z,42.87
2023-03-21T01:37:22.701Z,48.67
2023-03-21T01:39:50.456Z,48.33
2023-03-21T01:42:18.241Z,44.87
2023-03-21T01:44:56.694Z,48.90
2023-03-21T01:47:24.472Z,54.03
2023-03-21T01:49:56.461Z,47.03
2023-03-21T01:52:43.338Z,50.87
2023-03-21T01:55:15.430Z,44.80
2023-03-21T01:58:02.461Z,47.13
2023-03-21T02:00:36.478Z,47.63
2023-03-21T02:03:15.267Z,50.30
2023-03-21T02:05:53.342Z,49.47
2023-03-21T02:08:25.861Z,47.93
2023-03-21T02:11:01.284Z,43.60
2023-03-21T02:13:29.249Z,47.87
2023-03-21T02:16:02.949Z,47.23
2023-03-21T02:18:39.635Z,48.27
2023-03-21T02:21:30.276Z,46.20
2023-03-21T02:24:17.355Z,47.73
2023-03-21T02:27:03.969Z,54.97
2023-03-21T02:30:05.609Z,44.27
2023-03-21T02:32:51.328Z,49.30
2023-03-21T02:35:41.538Z,48.50
2023-03-21T02:38:23.711Z,46.67
2023-03-21T02:40:56.045Z,43.57
2023-03-21T02:43:35.311Z,45.33
2023-03-21T02:46:09.736Z,51.30
2023-03-21T02:48:50.727Z,51.03
2023-03-21T02:51:23.255Z,44.20
2023-03-21T02:54:23.680Z,41.07
2023-03-21T02:56:45.660Z,42.87
2023-03-21T02:59:15.781Z,44.40
2023-03-21T03:01:43.584Z,42.73
2023-03-21T03:04:22.489Z,45.73
2023-03-21T03:07:06.961Z,48.30
2023-03-21T03:09:49.508Z,44.43
2023-03-21T03:12:26.882Z,46.03
2023-03-21T03:15:05.243Z,48.07
2023-03-21T03:17:46.425Z,41.70
2023-03-21T03:20:40.498Z,42.47
2023-03-21T03:23:17.761Z,45.57
2023-03-21T03:25:52.524Z,42.80
2023-03-21T03:28:24.364Z,42.77
2023-03-21T03:31:07.913Z,40.13
2023-03-21T03:33:40.195Z,40.40
2023-03-21T03:36:21.555Z,39.63
2023-03-21T03:38:58.374Z,42.40
2023-03-21T03:41:31.886Z,48.40
2023-03-21T03:44:04.815Z,40.83
2023-03-21T03:46:37.557Z,38.40
2023-03-21T03:49:10.552Z,39.80
2023-03-21T03:51:44.884Z,38.70
2023-03-21T03:54:15.815Z,40.47
2023-03-21T03:56:45.202Z,42.27
2023-03-21T03:59:12.964Z,35.57
2023-03-21T04:01:41.428Z,36.23
2023-03-21T04:04:13.177Z,43.83
2023-03-21T04:06:41.485Z,37.53
2023-03-21T04:09:19.256Z,39.70
2023-03-21T04:11:50.032Z,34.57
2023-03-21T04:14:18.121Z,36.33
2023-03-21T04:16:45.848Z,34.20
2023-03-21T04:19:13.686Z,34.93
2023-03-21T04:21:41.513Z,32.77
2023-03-21T04:24:09.893Z,34.43
2023-03-21T04:26:38.162Z,33.33
2023-03-21T04:29:07.502Z,32.67
2023-03-21T04:31:36.051Z,33.43
2023-03-21T04:34:09.706Z,33.23
2023-03-21T04:36:42.979Z,28.97
2023-03-21T04:39:13.125Z,37.40
2023-03-21T04:41:41.041Z,32.77
2023-03-21T04:44:11.787Z,33.23
2023-03-21T04:46:40.280Z,37.63
2023-03-21T04:49:08.618Z,26.33
2023-03-21T04:51:36.655Z,28.80
2023-03-21T04:54:05.943Z,30.87
2023-03-21T04:56:33.854Z,31.60
2023-03-21T04:59:04.555Z,28.07
2023-03-21T05:01:34.018Z,29.90
2023-03-21T05:04:03.526Z,37.03
2023-03-21T05:06:32.057Z,28.83
2023-03-21T05:09:01.600Z,28.27
2023-03-21T05:11:30.787Z,30.33
2023-03-21T05:13:59.068Z,29.63
2023-03-21T05:16:30.520Z,30.00
2023-03-21T05:19:03.830Z,28.83
2023-03-21T05:21:34.175Z,31.23
2023-03-21T05:24:03.744Z,32.43
2023-03-21T05:26:31.508Z,33.93
2023-03-21T05:28:59.249Z,35.13
2023-03-21T05:31:27.026Z,33.63
2023-03-21T05:33:54.809Z,36.07
2023-03-21T05:36:24.015Z,35.90
2023-03-21T05:38:51.937Z,36.23
2023-03-21T05:41:21.334Z,38.37
2023-03-21T05:43:49.109Z,33.10
2023-03-21T05:46:16.867Z,34.77
2023-03-21T05:48:44.625Z,34.47
2023-03-21T05:51:12.395Z,32.80
2023-03-21T05:53:41.668Z,34.57
2023-03-21T05:56:10.596Z,38.03
2023-03-21T05:58:40.331Z,42.23
2023-03-21T06:01:08.610Z,38.80
2023-03-21T06:03:36.709Z,34.33
2023-03-21T06:06:04.765Z,38.30
2023-03-21T06:08:32.793Z,38.77
2023-03-21T06:11:02.102Z,37.33
2023-03-21T06:13:31.365Z,40.30
2023-03-21T06:15:59.138Z,37.00
2023-03-21T06:18:28.066Z,41.33
2023-03-21T06:20:57.412Z,38.33
2023-03-21T06:23:25.218Z,44.40
2023-03-21T06:25:53.026Z,42.37
2023-03-21T06:28:22.164Z,39.40
2023-03-21T06:30:49.874Z,39.63
2023-03-21T06:33:17.663Z,40.63
2023-03-21T06:35:45.516Z,41.40
2023-03-21T06:38:13.309Z,37.60
2023-03-21T06:40:41.018Z,38.67
2023-03-21T06:43:08.818Z,41.63
2023-03-21T06:45:38.079Z,40.13
2023-03-21T06:48:09.103Z,37.53
2023-03-21T06:50:37.248Z,41.60
2023-03-21T06:53:05.290Z,40.03
2023-03-21T06:55:33.013Z,39.97
2023-03-21T06:58:00.817Z,37.47
2023-03-21T07:00:28.916Z,38.30
2023-03-21T07:02:58.107Z,36.97
2023-03-21T07:05:26.075Z,40.60
2023-03-21T07:07:53.793Z,36.37
2023-03-21T07:10:21.563Z,41.17
2023-03-21T07:12:49.321Z,38.50
2023-03-21T07:15:17.490Z,34.03
2023-03-21T07:17:45.258Z,35.20
2023-03-21T07:20:14.590Z,39.27
2023-03-21T07:22:42.486Z,38.80
2023-03-21T07:25:11.110Z,37.73
2023-03-21T07:27:40.896Z,39.77
2023-03-21T07:30:10.807Z,36.07
2023-03-21T07:32:39.005Z,36.47
2023-03-21T07:35:07.893Z,39.73
2023-03-21T07:37:38.130Z,37.33
2023-03-21T07:40:10.522Z,36.27
2023-03-21T07:42:38.552Z,36.13
2023-03-21T07:45:08.404Z,35.57
2023-03-21T07:47:36.640Z,35.00
2023-03-21T07:50:05.139Z,35.57
2023-03-21T07:52:33.178Z,31.50
2023-03-21T07:55:02.274Z,32.20
2023-03-21T07:57:30.009Z,36.63
2023-03-21T07:59:57.783Z,33.63
2023-03-21T08:02:25.682Z,32.30
2023-03-21T08:04:53.541Z,33.00
2023-03-21T08:07:21.259Z,33.13
2023-03-21T08:09:49.046Z,32.83
2023-03-21T08:12:18.204Z,32.00
2023-03-21T08:14:46.196Z,34.57
2023-03-21T08:17:13.919Z,33.27
2023-03-21T08:19:42.000Z,34.30
2023-03-21T08:22:10.921Z,34.30
2023-03-21T08:24:38.694Z,33.90
2023-03-21T08:27:06.482Z,35.50
2023-03-21T08:29:40.389Z,40.70
2023-03-21T08:32:08.129Z,36.17
2023-03-21T08:34:36.504Z,30.50
2023-03-21T08:37:04.394Z,38.03
2023-03-21T08:39:32.252Z,33.70
2023-03-21T08:42:00.001Z,41.37
2023-03-21T08:44:27.792Z,34.00
2023-03-21T08:46:56.876Z,38.67
2023-03-21T08:49:24.618Z,32.13
2023-03-21T08:51:56.868Z,36.50
2023-03-21T08:54:24.824Z,37.33
2023-03-21T08:56:52.770Z,32.67
2023-03-21T08:59:20.520Z,39.40
2023-03-21T09:01:48.305Z,31.77
2023-03-21T09:04:18.975Z,32.63
2023-03-21T09:06:48.799Z,36.53
2023-03-21T09:09:16.925Z,29.43
2023-03-21T09:11:44.921Z,34.03
2023-03-21T09:14:12.886Z,33.63
2023-03-21T09:16:41.250Z,34.63
2023-03-21T09:19:09.641Z,32.03
2023-03-21T09:21:38.941Z,34.20
2023-03-21T09:24:07.304Z,30.80
2023-03-21T09:26:35.614Z,33.43
2023-03-21T09:29:04.928Z,30.10
2023-03-21T09:31:33.087Z,30.77
2023-03-21T09:34:01.136Z,31.97
2023-03-21T09:36:32.525Z,28.17
2023-03-21T09:39:04.133Z,24.17
2023-03-21T09:41:59.298Z,24.23
2023-03-21T09:44:37.945Z,25.33
2023-03-21T09:47:20.667Z,24.53
2023-03-21T09:49:54.665Z,23.67
2023-03-21T09:52:28.978Z,20.57
2023-03-21T09:54:58.345Z,20.10
2023-03-21T09:57:33.102Z,18.60
2023-03-21T10:00:11.303Z,19.47
2023-03-21T10:02:41.544Z,20.83
2023-03-21T10:05:17.741Z,19.13
2023-03-21T10:07:51.980Z,20.67
2023-03-21T10:10:26.572Z,21.47
2023-03-21T10:12:56.157Z,19.63
2023-03-21T10:15:26.635Z,17.97
2023-03-21T10:18:00.876Z,19.67
2023-03-21T10:20:31.930Z,18.47
2023-03-21T10:23:02.185Z,18.87
2023-03-21T10:25:36.019Z,18.40
2023-03-21T10:28:07.158Z,18.00
2023-03-21T10:30:42.244Z,19.27
2023-03-21T10:33:14.353Z,17.70
2023-03-21T10:35:46.093Z,18.50
2023-03-21T10:38:17.772Z,16.60
2023-03-21T10:40:47.352Z,16.80
2023-03-21T10:43:19.756Z,17.30
2023-03-21T10:45:49.008Z,17.07
2023-03-21T10:48:17.052Z,16.37
2023-03-21T10:50:49.570Z,16.33
2023-03-21T10:53:20.386Z,16.10
2023-03-21T10:55:55.646Z,19.03
2023-03-21T10:58:27.893Z,16.10
2023-03-21T11:00:59.104Z,16.17
2023-03-21T11:03:31.325Z,17.33
2023-03-21T11:06:03.360Z,16.27
2023-03-21T11:08:31.978Z,18.07
2023-03-21T11:11:04.478Z,18.77
2023-03-21T11:13:38.905Z,17.93
2023-03-21T11:16:09.543Z,20.77
2023-03-21T11:18:43.412Z,18.23
2023-03-21T11:21:13.742Z,17.80
2023-03-21T11:23:46.892Z,17.53
2023-03-21T11:26:24.120Z,18.60
2023-03-21T11:28:52.600Z,21.33
2023-03-21T11:31:20.961Z,19.23
2023-03-21T11:33:53.588Z,19.20
2023-03-21T11:36:36.271Z,18.80
2023-03-21T11:39:15.438Z,19.27
2023-03-21T11:41:49.116Z,19.97
2023-03-21T11:44:32.083Z,18.63
2023-03-21T11:47:00.803Z,19.17
2023-03-21T11:49:29.801Z,18.97
2023-03-21T11:52:08.012Z,18.90
2023-03-21T11:54:49.702Z,17.67
2023-03-21T11:57:30.854Z,16.90
2023-03-21T12:00:10.902Z,17.20
2023-03-21T12:03:04.747Z,17.90
2023-03-21T12:05:36.438Z,18.17
2023-03-21T12:08:10.108Z,18.07
2023-03-21T12:10:45.224Z,14.30
2023-03-21T12:13:34.511Z,18.60
2023-03-21T12:16:17.063Z,15.80
2023-03-21T12:19:00.283Z,16.40
2023-03-21T12:21:34.873Z,16.47
2023-03-21T12:24:07.589Z,16.63
2023-03-21T12:26:43.185Z,15.73
2023-03-21T12:29:27.163Z,15.27
2023-03-21T12:32:07.846Z,16.73
2023-03-21T12:35:03.629Z,16.17
2023-03-21T12:37:38.588Z,16.33
2023-03-21T12:40:18.188Z,17.17
2023-03-21T12:43:18.706Z,18.73
2023-03-21T12:45:52.210Z,17.40
2023-03-21T12:48:25.713Z,16.80
2023-03-21T12:50:57.189Z,16.27
2023-03-21T12:53:47.347Z,16.93
2023-03-21T12:56:22.020Z,18.13
2023-03-21T12:58:56.222Z,19.33
2023-03-21T13:01:26.452Z,18.90
2023-03-21T13:04:15.890Z,17.70
2023-03-21T13:06:46.616Z,18.40
2023-03-21T13:09:23.312Z,18.47
2023-03-21T13:12:00.596Z,21.47
2023-03-21T13:14:35.094Z,20.87
2023-03-21T13:17:07.988Z,17.90
2023-03-21T13:19:39.984Z,21.07
2023-03-21T13:22:12.435Z,25.70
2023-03-21T13:24:43.747Z,23.40
2023-03-21T13:27:24.735Z,24.90
2023-03-21T13:29:55.460Z,23.00
2023-03-21T13:32:30.977Z,21.63
2023-03-21T13:35:00.475Z,23.67
2023-03-21T13:37:32.242Z,21.37
2023-03-21T13:40:09.257Z,24.70
2023-03-21T13:42:45.033Z,23.97
2023-03-21T13:45:24.216Z,24.53
2023-03-21T13:47:55.645Z,26.93
2023-03-21T13:50:50.754Z,24.97
2023-03-21T13:53:33.961Z,23.77
2023-03-21T13:56:25.914Z,21.30
2023-03-21T13:59:02.037Z,26.30
2023-03-21T14:01:37.900Z,25.23
2023-03-21T14:04:13.447Z,26.53
2023-03-21T14:06:47.526Z,25.00
2023-03-21T14:09:23.218Z,24.17
2023-03-21T14:11:54.705Z,24.83
2023-03-21T14:14:29.542Z,26.50
2023-03-21T14:16:57.371Z,24.43
2023-03-21T14:19:32.851Z,23.57
2023-03-21T14:22:00.652Z,25.27
2023-03-21T14:24:28.413Z,25.97
2023-03-21T14:26:56.866Z,24.23
2023-03-21T14:29:27.431Z,27.37
2023-03-21T14:31:56.979Z,25.30
2023-03-21T14:34:26.152Z,21.67
2023-03-21T14:36:58.651Z,20.70
2023-03-21T14:39:29.308Z,22.93
2023-03-21T14:42:01.891Z,22.70
2023-03-21T14:44:44.094Z,23.90
2023-03-21T14:47:21.348Z,21.93
2023-03-21T14:49:50.827Z,23.23
2023-03-21T14:52:24.906Z,20.43
2023-03-21T14:54:53.588Z,21.57
2023-03-21T14:57:24.913Z,21.47
2023-03-21T14:59:55.873Z,21.33
2023-03-21T15:02:28.398Z,20.17
2023-03-21T15:04:58.850Z,20.50
2023-03-21T15:07:30.324Z,19.50
2023-03-21T15:10:00.881Z,20.07
2023-03-21T15:12:28.830Z,20.50
2023-03-21T15:14:57.359Z,22.90
2023-03-21T15:17:26.943Z,20.43
2023-03-21T15:19:54.934Z,21.83
2023-03-21T15:22:33.452Z,19.87
2023-03-21T15:25:05.813Z,20.00
2023-03-21T15:27:38.508Z,22.77
2023-03-21T15:30:07.577Z,23.60
2023-03-21T15:32:38.278Z,23.53
2023-03-21T15:35:09.255Z,25.27
2023-03-21T15:37:39.321Z,25.97
2023-03-21T15:40:17.495Z,23.27
2023-03-21T15:42:45.421Z,24.37
2023-03-21T15:45:21.229Z,21.60
2023-03-21T15:47:54.931Z,24.43
2023-03-21T15:50:27.952Z,24.53
2023-03-21T15:53:00.414Z,28.50
2023-03-21T15:55:30.858Z,25.80
2023-03-21T15:58:04.793Z,26.80
2023-03-21T16:00:38.896Z,31.97
2023-03-21T16:03:11.787Z,26.50
2023-03-21T16:05:39.636Z,26.20
2023-03-21T16:08:20.257Z,26.07
2023-03-21T16:10:48.886Z,26.53
2023-03-21T16:13:17.472Z,26.87
2023-03-21T16:15:45.574Z,26.97
2023-03-21T16:18:16.016Z,26.73
2023-03-21T16:20:46.754Z,27.23
2023-03-21T16:23:17.317Z,27.57
2023-03-21T16:25:45.823Z,25.10
2023-03-21T16:28:15.863Z,26.17
2023-03-21T16:30:43.891Z,28.03
2023-03-21T16:33:12.300Z,28.63
2023-03-21T16:35:40.466Z,27.70
2023-03-21T16:38:08.245Z,26.73
2023-03-21T16:40:40.129Z,29.30
2023-03-21T16:43:08.783Z,26.67
2023-03-21T16:45:37.038Z,23.27
2023-03-21T16:48:05.537Z,30.03
2023-03-21T16:50:34.714Z,27.53
2023-03-21T16:53:03.280Z,21.17
2023-03-21T16:55:32.964Z,23.67
2023-03-21T16:58:02.531Z,25.43
2023-03-21T17:00:31.862Z,24.70
2023-03-21T17:03:02.419Z,24.07
2023-03-21T17:05:31.432Z,23.13
2023-03-21T17:08:02.157Z,24.17
2023-03-21T17:10:32.101Z,25.83
2023-03-21T17:13:00.196Z,29.50
2023-03-21T17:15:29.360Z,27.53
2023-03-21T17:17:57.145Z,28.93
2023-03-21T17:20:30.154Z,29.50
2023-03-21T17:22:58.194Z,29.50
2023-03-21T17:25:27.121Z,28.93
2023-03-21T17:27:54.914Z,27.57
2023-03-21T17:30:24.515Z,29.70
2023-03-21T17:32:54.233Z,27.17
2023-03-21T17:35:23.045Z,29.93
2023-03-21T17:37:51.844Z,27.83
2023-03-21T17:40:22.815Z,27.07
2023-03-21T17:42:51.766Z,27.37
2023-03-21T17:45:20.866Z,30.07
2023-03-21T17:47:48.683Z,32.67
2023-03-21T17:50:20.793Z,27.67
2023-03-21T17:52:50.663Z,26.10
2023-03-21T17:55:21.230Z,27.90
2023-03-21T17:57:50.132Z,28.13
2023-03-21T18:00:21.275Z,31.90
2023-03-21T18:02:49.142Z,27.23
2023-03-21T18:05:18.731Z,31.43
2023-03-21T18:08:08.667Z,29.00
2023-03-21T18:10:34.633Z,28.00
2023-03-21T18:13:02.408Z,27.77
2023-03-21T18:15:30.755Z,29.80
2023-03-21T18:17:59.049Z,25.50
2023-03-21T18:20:50.507Z,25.57
2023-03-21T18:23:19.245Z,24.70
2023-03-21T18:25:47.313Z,26.67
2023-03-21T18:28:19.417Z,28.57
2023-03-21T18:31:07.742Z,26.60
2023-03-21T18:33:40.267Z,28.83
2023-03-21T18:36:14.974Z,24.87
2023-03-21T18:38:43.134Z,26.53
2023-03-21T18:41:11.472Z,27.77
2023-03-21T18:46:27.489Z,25.83
2023-03-21T18:48:55.631Z,30.57
2023-03-21T18:51:27.675Z,29.47
2023-03-21T18:53:55.691Z,28.90
2023-03-21T18:57:13.178Z,27.80
2023-03-21T18:59:11.734Z,28.87
2023-03-21T19:01:40.155Z,29.17
2023-03-21T19:04:29.744Z,25.13
2023-03-21T19:06:57.593Z,30.73
2023-03-21T19:09:31.152Z,26.37
2023-03-21T19:11:59.317Z,31.33
2023-03-21T19:14:27.218Z,29.97
2023-03-21T19:17:47.175Z,30.03
2023-03-21T19:19:44.410Z,28.87
2023-03-21T19:22:13.730Z,26.23
2023-03-21T19:24:41.587Z,28.00
2023-03-21T19:27:10.271Z,29.97
2023-03-21T19:29:38.058Z,26.50
2023-03-21T19:32:06.534Z,29.67
2023-03-21T19:34:34.545Z,30.37
2023-03-21T19:37:02.809Z,29.57
2023-03-21T19:39:31.962Z,26.17
2023-03-21T19:42:14.982Z,27.63
2023-03-21T19:44:44.205Z,28.77
2023-03-21T19:47:12.061Z,26.13
2023-03-21T19:52:29.212Z,24.77
2023-03-21T19:54:58.328Z,22.10
2023-03-21T19:57:26.337Z,24.63
2023-03-21T19:59:54.893Z,24.27
2023-03-21T20:02:35.082Z,22.73
2023-03-21T20:05:04.168Z,24.67
2023-03-21T20:07:32.917Z,22.53
2023-03-21T20:10:02.192Z,22.63
2023-03-21T20:12:30.647Z,24.63
2023-03-21T20:15:10.405Z,21.27
2023-03-21T20:17:44.784Z,19.07
2023-03-21T20:20:18.254Z,20.83
2023-03-21T20:23:07.487Z,23.83
2023-03-21T20:25:40.333Z,22.57
2023-03-21T20:28:23.890Z,22.20
2023-03-21T20:30:56.761Z,21.27
2023-03-21T20:33:25.152Z,19.07
2023-03-21T20:38:45.664Z,19.77
2023-03-21T20:41:15.337Z,21.17
2023-03-21T20:46:30.998Z,18.60
2023-03-21T20:48:59.761Z,18.00
2023-03-21T20:54:16.024Z,14.77
2023-03-21T20:56:45.475Z,16.17
2023-03-21T20:59:20.919Z,14.03
2023-03-21T21:01:51.901Z,11.87
2023-03-21T21:04:20.469Z,17.03
2023-03-21T21:06:48.622Z,14.10
2023-03-21T21:09:16.589Z,15.20
2023-03-21T21:14:35.475Z,13.73
2023-03-21T21:17:20.981Z,13.00
2023-03-21T21:19:51.309Z,13.83
2023-03-21T21:22:19.092Z,16.47
2023-03-21T21:24:46.854Z,14.33
2023-03-21T21:27:15.937Z,13.43
2023-03-21T21:29:47.666Z,14.23
2023-03-21T21:32:16.733Z,16.03
2023-03-21T21:34:44.590Z,14.67
2023-03-21T21:37:12.410Z,14.63
2023-03-21T21:39:40.180Z,12.07
2023-03-21T21:42:07.998Z,15.60
2023-03-21T21:44:37.529Z,16.70
2023-03-21T21:47:08.558Z,15.87
2023-03-21T21:49:36.537Z,16.60
2023-03-21T21:52:05.978Z,17.23
2023-03-21T21:54:35.003Z,16.60
2023-03-21T21:57:02.916Z,15.60
2023-03-21T21:59:30.843Z,20.17
2023-03-21T22:01:59.950Z,19.53
2023-03-21T22:04:28.603Z,18.87
2023-03-21T22:06:56.454Z,18.73
2023-03-21T22:09:24.560Z,17.40
2023-03-21T22:11:52.294Z,17.57
2023-03-21T22:14:20.015Z,25.17
2023-03-21T22:16:47.759Z,19.40
2023-03-21T22:19:16.877Z,21.13
2023-03-21T22:21:44.618Z,18.07
2023-03-21T22:24:12.334Z,19.43
2023-03-21T22:26:40.177Z,20.37
2023-03-21T22:29:08.247Z,27.10
2023-03-21T22:31:38.734Z,25.17
2023-03-21T22:34:06.574Z,25.60
2023-03-21T22:36:35.725Z,26.30
2023-03-21T22:39:03.694Z,25.77
2023-03-21T22:41:31.443Z,26.83
2023-03-21T22:43:59.168Z,27.30
2023-03-21T22:46:27.604Z,27.17
2023-03-21T22:48:55.411Z,33.90
2023-03-21T22:51:23.370Z,29.70
2023-03-21T22:53:52.639Z,37.47
2023-03-21T22:56:20.353Z,33.80
2023-03-21T22:58:48.096Z,30.87
2023-03-21T23:01:15.880Z,33.03
2023-03-21T23:03:43.644Z,34.73
2023-03-21T23:06:11.374Z,33.90
2023-03-21T23:08:39.108Z,37.13
2023-03-21T23:11:09.633Z,28.80
2023-03-21T23:13:37.503Z,31.60
2023-03-21T23:16:05.696Z,36.83
2023-03-21T23:18:33.775Z,34.40
2023-03-21T23:21:01.819Z,41.30
2023-03-21T23:23:29.564Z,39.00
2023-03-21T23:25:57.884Z,37.03
2023-03-21T23:28:27.034Z,36.43
2023-03-21T23:30:55.054Z,35.43
2023-03-21T23:33:22.842Z,39.00
2023-03-21T23:35:51.255Z,35.13
2023-03-21T23:38:19.007Z,36.67
2023-03-21T23:40:46.733Z,43.10
2023-03-21T23:43:14.454Z,33.80
2023-03-21T23:45:44.138Z,33.03
2023-03-21T23:48:11.871Z,35.07
2023-03-21T23:50:39.757Z,36.17
2023-03-21T23:53:07.631Z,41.87
2023-03-21T23:55:38.665Z,37.37
2023-03-21T23:58:09.203Z,38.73
